sensor_id;sensor_type;location;lat;lon;timestamp;P1;durP1;ratioP1;P2;durP2;ratioP2
63012;SDS011;62113;45.624;11.700;2024-03-02T00:01:03;5.60;;;2.10;;
63012;SDS011;62113;45.624;11.700;2024-03-02T00:03:29;8.32;;;2.20;;
63012;SDS011;62113;45.624;11.700;2024-03-02T00:05:55;13.17;;;2.03;;
63012;SDS011;62113;45.624;11.700;2024-03-02T00:08:22;13.38;;;2.70;;
63012;SDS011;62113;45.624;11.700;2024-03-02T00:10:53;13.38;;;3.03;;
63012;SDS011;62113;45.624;11.700;2024-03-02T00:13:23;14.13;;;3.00;;
63012;SDS011;62113;45.624;11.700;2024-03-02T00:15:53;12.37;;;2.93;;
63012;SDS011;62113;45.624;11.700;2024-03-02T00:20:59;9.13;;;2.55;;
63012;SDS011;62113;45.624;11.700;2024-03-02T00:23:32;11.83;;;2.50;;
63012;SDS011;62113;45.624;11.700;2024-03-02T00:26:00;13.50;;;4.82;;
63012;SDS011;62113;45.624;11.700;2024-03-02T00:33:27;12.68;;;3.15;;
63012;SDS011;62113;45.624;11.700;2024-03-02T00:36:01;6.53;;;2.75;;
63012;SDS011;62113;45.624;11.700;2024-03-02T00:38:28;19.48;;;2.85;;
63012;SDS011;62113;45.624;11.700;2024-03-02T00:41:04;6.90;;;2.50;;
63012;SDS011;62113;45.624;11.700;2024-03-02T00:46:04;9.38;;;2.80;;
63012;SDS011;62113;45.624;11.700;2024-03-02T00:48:29;7.22;;;2.80;;
63012;SDS011;62113;45.624;11.700;2024-03-02T00:50:56;11.93;;;2.85;;
63012;SDS011;62113;45.624;11.700;2024-03-02T00:53:23;6.27;;;2.40;;
63012;SDS011;62113;45.624;11.700;2024-03-02T00:55:51;14.18;;;2.75;;
63012;SDS011;62113;45.624;11.700;2024-03-02T00:58:17;10.27;;;2.40;;
63012;SDS011;62113;45.624;11.700;2024-03-02T01:00:42;6.70;;;2.28;;
63012;SDS011;62113;45.624;11.700;2024-03-02T01:03:08;5.97;;;2.47;;
63012;SDS011;62113;45.624;11.700;2024-03-02T01:05:35;10.10;;;2.60;;
63012;SDS011;62113;45.624;11.700;2024-03-02T01:08:01;4.25;;;2.92;;
63012;SDS011;62113;45.624;11.700;2024-03-02T01:10:27;9.33;;;3.27;;
63012;SDS011;62113;45.624;11.700;2024-03-02T01:12:52;4.90;;;2.20;;
63012;SDS011;62113;45.624;11.700;2024-03-02T01:15:18;10.60;;;2.70;;
63012;SDS011;62113;45.624;11.700;2024-03-02T01:17:44;9.27;;;2.47;;
63012;SDS011;62113;45.624;11.700;2024-03-02T01:20:10;10.43;;;2.20;;
63012;SDS011;62113;45.624;11.700;2024-03-02T01:22:36;8.33;;;2.10;;
63012;SDS011;62113;45.624;11.700;2024-03-02T01:25:02;7.45;;;2.33;;
63012;SDS011;62113;45.624;11.700;2024-03-02T01:27:28;4.77;;;2.20;;
63012;SDS011;62113;45.624;11.700;2024-03-02T01:29:53;10.53;;;2.67;;
63012;SDS011;62113;45.624;11.700;2024-03-02T01:32:19;9.27;;;3.20;;
63012;SDS011;62113;45.624;11.700;2024-03-02T01:34:45;10.15;;;2.58;;
63012;SDS011;62113;45.624;11.700;2024-03-02T01:37:11;9.02;;;2.40;;
63012;SDS011;62113;45.624;11.700;2024-03-02T01:39:36;6.13;;;2.20;;
63012;SDS011;62113;45.624;11.700;2024-03-02T01:42:02;10.57;;;2.70;;
63012;SDS011;62113;45.624;11.700;2024-03-02T01:44:28;7.50;;;2.00;;
63012;SDS011;62113;45.624;11.700;2024-03-02T01:46:53;5.80;;;2.20;;
63012;SDS011;62113;45.624;11.700;2024-03-02T01:49:19;8.10;;;2.07;;
63012;SDS011;62113;45.624;11.700;2024-03-02T01:51:45;8.63;;;2.83;;
63012;SDS011;62113;45.624;11.700;2024-03-02T01:54:11;6.90;;;2.30;;
63012;SDS011;62113;45.624;11.700;2024-03-02T01:56:36;7.83;;;2.63;;
63012;SDS011;62113;45.624;11.700;2024-03-02T01:59:02;8.95;;;2.83;;
63012;SDS011;62113;45.624;11.700;2024-03-02T02:01:28;13.27;;;2.57;;
63012;SDS011;62113;45.624;11.700;2024-03-02T02:03:54;10.57;;;4.20;;
63012;SDS011;62113;45.624;11.700;2024-03-02T02:06:20;7.43;;;2.42;;
63012;SDS011;62113;45.624;11.700;2024-03-02T02:08:46;5.93;;;2.38;;
63012;SDS011;62113;45.624;11.700;2024-03-02T02:11:14;13.77;;;2.57;;
63012;SDS011;62113;45.624;11.700;2024-03-02T02:13:41;3.80;;;2.28;;
63012;SDS011;62113;45.624;11.700;2024-03-02T02:16:07;7.63;;;2.50;;
63012;SDS011;62113;45.624;11.700;2024-03-02T02:18:33;10.70;;;2.50;;
63012;SDS011;62113;45.624;11.700;2024-03-02T02:20:59;6.30;;;2.43;;
63012;SDS011;62113;45.624;11.700;2024-03-02T02:23:24;2.60;;;2.07;;
63012;SDS011;62113;45.624;11.700;2024-03-02T02:25:50;12.93;;;3.05;;
63012;SDS011;62113;45.624;11.700;2024-03-02T02:28:16;5.57;;;2.10;;
63012;SDS011;62113;45.624;11.700;2024-03-02T02:30:41;8.40;;;2.20;;
63012;SDS011;62113;45.624;11.700;2024-03-02T02:33:07;6.97;;;2.17;;
63012;SDS011;62113;45.624;11.700;2024-03-02T02:35:34;11.57;;;2.60;;
63012;SDS011;62113;45.624;11.700;2024-03-02T02:37:59;11.07;;;2.10;;
63012;SDS011;62113;45.624;11.700;2024-03-02T02:40:25;6.50;;;2.33;;
63012;SDS011;62113;45.624;11.700;2024-03-02T02:42:51;6.97;;;1.90;;
63012;SDS011;62113;45.624;11.700;2024-03-02T02:45:17;10.03;;;2.30;;
63012;SDS011;62113;45.624;11.700;2024-03-02T02:47:43;5.88;;;2.17;;
63012;SDS011;62113;45.624;11.700;2024-03-02T02:50:10;4.03;;;2.05;;
63012;SDS011;62113;45.624;11.700;2024-03-02T02:52:37;5.40;;;1.92;;
63012;SDS011;62113;45.624;11.700;2024-03-02T02:55:05;9.10;;;2.00;;
63012;SDS011;62113;45.624;11.700;2024-03-02T02:57:32;7.88;;;1.92;;
63012;SDS011;62113;45.624;11.700;2024-03-02T03:00:05;5.43;;;1.95;;
63012;SDS011;62113;45.624;11.700;2024-03-02T03:02:38;11.30;;;2.10;;
63012;SDS011;62113;45.624;11.700;2024-03-02T03:05:05;13.35;;;2.63;;
63012;SDS011;62113;45.624;11.700;2024-03-02T03:07:32;9.43;;;2.27;;
63012;SDS011;62113;45.624;11.700;2024-03-02T03:09:59;8.48;;;2.50;;
63012;SDS011;62113;45.624;11.700;2024-03-02T03:12:24;14.43;;;1.90;;
63012;SDS011;62113;45.624;11.700;2024-03-02T03:14:50;8.25;;;1.98;;
63012;SDS011;62113;45.624;11.700;2024-03-02T03:17:15;7.20;;;2.07;;
63012;SDS011;62113;45.624;11.700;2024-03-02T03:19:42;11.48;;;2.15;;
63012;SDS011;62113;45.624;11.700;2024-03-02T03:22:08;6.60;;;2.13;;
63012;SDS011;62113;45.624;11.700;2024-03-02T03:24:33;13.10;;;2.08;;
63012;SDS011;62113;45.624;11.700;2024-03-02T03:26:59;10.30;;;2.57;;
63012;SDS011;62113;45.624;11.700;2024-03-02T03:29:25;12.57;;;2.78;;
63012;SDS011;62113;45.624;11.700;2024-03-02T03:31:50;11.33;;;2.27;;
63012;SDS011;62113;45.624;11.700;2024-03-02T03:34:16;14.53;;;2.40;;
63012;SDS011;62113;45.624;11.700;2024-03-02T03:36:42;9.90;;;2.13;;
63012;SDS011;62113;45.624;11.700;2024-03-02T03:39:08;13.43;;;2.40;;
63012;SDS011;62113;45.624;11.700;2024-03-02T03:41:33;10.52;;;2.50;;
63012;SDS011;62113;45.624;11.700;2024-03-02T03:43:59;15.02;;;3.47;;
63012;SDS011;62113;45.624;11.700;2024-03-02T03:46:25;9.80;;;2.00;;
63012;SDS011;62113;45.624;11.700;2024-03-02T03:48:50;11.93;;;2.67;;
63012;SDS011;62113;45.624;11.700;2024-03-02T03:51:16;14.95;;;2.30;;
63012;SDS011;62113;45.624;11.700;2024-03-02T03:53:41;9.00;;;2.72;;
63012;SDS011;62113;45.624;11.700;2024-03-02T03:56:07;8.83;;;2.03;;
63012;SDS011;62113;45.624;11.700;2024-03-02T03:58:32;14.97;;;2.67;;
63012;SDS011;62113;45.624;11.700;2024-03-02T04:00:58;9.37;;;2.60;;
63012;SDS011;62113;45.624;11.700;2024-03-02T04:03:24;3.90;;;2.00;;
63012;SDS011;62113;45.624;11.700;2024-03-02T04:05:50;14.27;;;2.65;;
63012;SDS011;62113;45.624;11.700;2024-03-02T04:08:16;7.78;;;2.08;;
63012;SDS011;62113;45.624;11.700;2024-03-02T04:10:41;7.70;;;2.63;;
63012;SDS011;62113;45.624;11.700;2024-03-02T04:13:07;14.93;;;2.83;;
63012;SDS011;62113;45.624;11.700;2024-03-02T04:15:33;9.63;;;2.60;;
63012;SDS011;62113;45.624;11.700;2024-03-02T04:17:58;11.23;;;2.85;;
63012;SDS011;62113;45.624;11.700;2024-03-02T04:20:24;8.55;;;2.20;;
63012;SDS011;62113;45.624;11.700;2024-03-02T04:22:50;8.80;;;2.83;;
63012;SDS011;62113;45.624;11.700;2024-03-02T04:25:16;11.35;;;2.47;;
63012;SDS011;62113;45.624;11.700;2024-03-02T04:27:41;10.35;;;2.67;;
63012;SDS011;62113;45.624;11.700;2024-03-02T04:30:07;6.07;;;2.00;;
63012;SDS011;62113;45.624;11.700;2024-03-02T04:32:33;9.30;;;2.35;;
63012;SDS011;62113;45.624;11.700;2024-03-02T04:34:58;12.55;;;2.30;;
63012;SDS011;62113;45.624;11.700;2024-03-02T04:37:24;4.63;;;2.30;;
63012;SDS011;62113;45.624;11.700;2024-03-02T04:39:50;8.30;;;2.92;;
63012;SDS011;62113;45.624;11.700;2024-03-02T04:42:15;8.87;;;2.43;;
63012;SDS011;62113;45.624;11.700;2024-03-02T04:44:41;6.53;;;2.50;;
63012;SDS011;62113;45.624;11.700;2024-03-02T04:47:06;6.77;;;2.63;;
63012;SDS011;62113;45.624;11.700;2024-03-02T04:49:32;9.87;;;2.07;;
63012;SDS011;62113;45.624;11.700;2024-03-02T04:51:58;5.70;;;2.37;;
63012;SDS011;62113;45.624;11.700;2024-03-02T04:54:23;8.90;;;2.38;;
63012;SDS011;62113;45.624;11.700;2024-03-02T04:56:49;5.50;;;2.00;;
63012;SDS011;62113;45.624;11.700;2024-03-02T04:59:18;10.60;;;2.40;;
63012;SDS011;62113;45.624;11.700;2024-03-02T05:01:44;10.85;;;2.33;;
63012;SDS011;62113;45.624;11.700;2024-03-02T05:04:10;6.45;;;2.13;;
63012;SDS011;62113;45.624;11.700;2024-03-02T05:06:37;6.30;;;1.98;;
63012;SDS011;62113;45.624;11.700;2024-03-02T05:09:04;8.32;;;2.50;;
63012;SDS011;62113;45.624;11.700;2024-03-02T05:11:29;12.38;;;2.47;;
63012;SDS011;62113;45.624;11.700;2024-03-02T05:14:07;6.13;;;2.25;;
63012;SDS011;62113;45.624;11.700;2024-03-02T05:16:33;9.68;;;2.33;;
63012;SDS011;62113;45.624;11.700;2024-03-02T05:18:59;9.15;;;2.17;;
63012;SDS011;62113;45.624;11.700;2024-03-02T05:21:25;9.02;;;2.38;;
63012;SDS011;62113;45.624;11.700;2024-03-02T05:23:51;7.17;;;2.17;;
63012;SDS011;62113;45.624;11.700;2024-03-02T05:26:16;6.87;;;2.27;;
63012;SDS011;62113;45.624;11.700;2024-03-02T05:28:42;8.02;;;2.70;;
63012;SDS011;62113;45.624;11.700;2024-03-02T05:31:10;5.72;;;2.30;;
63012;SDS011;62113;45.624;11.700;2024-03-02T05:33:40;7.32;;;2.45;;
63012;SDS011;62113;45.624;11.700;2024-03-02T05:36:05;5.97;;;2.42;;
63012;SDS011;62113;45.624;11.700;2024-03-02T05:38:32;12.05;;;2.65;;
63012;SDS011;62113;45.624;11.700;2024-03-02T05:40:59;13.00;;;3.08;;
63012;SDS011;62113;45.624;11.700;2024-03-02T05:43:25;15.15;;;3.08;;
63012;SDS011;62113;45.624;11.700;2024-03-02T05:45:51;14.00;;;4.00;;
63012;SDS011;62113;45.624;11.700;2024-03-02T05:48:16;8.97;;;4.97;;
63012;SDS011;62113;45.624;11.700;2024-03-02T05:50:42;15.18;;;4.63;;
63012;SDS011;62113;45.624;11.700;2024-03-02T05:53:07;8.00;;;3.57;;
63012;SDS011;62113;45.624;11.700;2024-03-02T05:55:33;8.20;;;2.80;;
63012;SDS011;62113;45.624;11.700;2024-03-02T05:57:59;8.48;;;2.47;;
63012;SDS011;62113;45.624;11.700;2024-03-02T06:00:30;6.78;;;2.50;;
63012;SDS011;62113;45.624;11.700;2024-03-02T06:02:56;9.30;;;2.60;;
63012;SDS011;62113;45.624;11.700;2024-03-02T06:05:22;6.17;;;2.40;;
63012;SDS011;62113;45.624;11.700;2024-03-02T06:07:47;8.60;;;2.93;;
63012;SDS011;62113;45.624;11.700;2024-03-02T06:10:13;10.50;;;3.05;;
63012;SDS011;62113;45.624;11.700;2024-03-02T06:12:39;9.43;;;2.80;;
63012;SDS011;62113;45.624;11.700;2024-03-02T06:15:05;9.00;;;2.50;;
63012;SDS011;62113;45.624;11.700;2024-03-02T06:17:31;8.33;;;2.10;;
63012;SDS011;62113;45.624;11.700;2024-03-02T06:19:56;11.38;;;2.83;;
63012;SDS011;62113;45.624;11.700;2024-03-02T06:22:22;7.63;;;2.53;;
63012;SDS011;62113;45.624;11.700;2024-03-02T06:24:50;6.03;;;2.20;;
63012;SDS011;62113;45.624;11.700;2024-03-02T06:27:15;5.35;;;3.05;;
63012;SDS011;62113;45.624;11.700;2024-03-02T06:29:41;11.10;;;2.53;;
63012;SDS011;62113;45.624;11.700;2024-03-02T06:32:07;6.28;;;2.50;;
63012;SDS011;62113;45.624;11.700;2024-03-02T06:34:32;11.57;;;2.23;;
63012;SDS011;62113;45.624;11.700;2024-03-02T06:36:58;9.10;;;2.42;;
63012;SDS011;62113;45.624;11.700;2024-03-02T06:39:24;7.37;;;2.30;;
63012;SDS011;62113;45.624;11.700;2024-03-02T06:41:50;9.65;;;2.53;;
63012;SDS011;62113;45.624;11.700;2024-03-02T06:44:16;9.03;;;2.17;;
63012;SDS011;62113;45.624;11.700;2024-03-02T06:46:42;9.37;;;2.37;;
63012;SDS011;62113;45.624;11.700;2024-03-02T06:49:07;8.77;;;2.53;;
63012;SDS011;62113;45.624;11.700;2024-03-02T06:51:35;5.55;;;2.50;;
63012;SDS011;62113;45.624;11.700;2024-03-02T06:54:01;7.72;;;2.50;;
63012;SDS011;62113;45.624;11.700;2024-03-02T06:56:26;5.87;;;2.20;;
63012;SDS011;62113;45.624;11.700;2024-03-02T06:58:52;8.07;;;2.27;;
63012;SDS011;62113;45.624;11.700;2024-03-02T07:01:17;5.87;;;2.60;;
63012;SDS011;62113;45.624;11.700;2024-03-02T07:03:43;6.73;;;2.67;;
63012;SDS011;62113;45.624;11.700;2024-03-02T07:06:09;9.67;;;2.70;;
63012;SDS011;62113;45.624;11.700;2024-03-02T07:08:34;3.90;;;2.00;;
63012;SDS011;62113;45.624;11.700;2024-03-02T07:11:00;4.47;;;2.50;;
63012;SDS011;62113;45.624;11.700;2024-03-02T07:13:26;11.07;;;2.70;;
63012;SDS011;62113;45.624;11.700;2024-03-02T07:15:52;5.83;;;2.20;;
63012;SDS011;62113;45.624;11.700;2024-03-02T07:18:35;9.02;;;2.30;;
63012;SDS011;62113;45.624;11.700;2024-03-02T07:21:10;8.45;;;2.47;;
63012;SDS011;62113;45.624;11.700;2024-03-02T07:23:35;6.40;;;2.20;;
63012;SDS011;62113;45.624;11.700;2024-03-02T07:26:01;4.77;;;2.13;;
63012;SDS011;62113;45.624;11.700;2024-03-02T07:28:28;4.80;;;2.28;;
63012;SDS011;62113;45.624;11.700;2024-03-02T07:31:12;5.85;;;2.42;;
63012;SDS011;62113;45.624;11.700;2024-03-02T07:33:37;10.45;;;2.72;;
63012;SDS011;62113;45.624;11.700;2024-03-02T07:36:03;4.13;;;2.63;;
63012;SDS011;62113;45.624;11.700;2024-03-02T07:38:29;4.63;;;2.30;;
63012;SDS011;62113;45.624;11.700;2024-03-02T07:40:55;5.37;;;2.60;;
63012;SDS011;62113;45.624;11.700;2024-03-02T07:43:21;8.47;;;2.40;;
63012;SDS011;62113;45.624;11.700;2024-03-02T07:45:47;7.77;;;2.40;;
63012;SDS011;62113;45.624;11.700;2024-03-02T07:48:13;5.63;;;2.73;;
63012;SDS011;62113;45.624;11.700;2024-03-02T07:50:39;9.23;;;2.30;;
63012;SDS011;62113;45.624;11.700;2024-03-02T07:53:05;4.87;;;2.17;;
63012;SDS011;62113;45.624;11.700;2024-03-02T07:55:32;10.20;;;2.60;;
63012;SDS011;62113;45.624;11.700;2024-03-02T07:57:58;9.82;;;3.20;;
63012;SDS011;62113;45.624;11.700;2024-03-02T08:00:24;11.25;;;3.67;;
63012;SDS011;62113;45.624;11.700;2024-03-02T08:02:51;6.03;;;2.70;;
63012;SDS011;62113;45.624;11.700;2024-03-02T08:05:17;9.18;;;2.72;;
63012;SDS011;62113;45.624;11.700;2024-03-02T08:07:46;6.80;;;2.92;;
63012;SDS011;62113;45.624;11.700;2024-03-02T08:10:12;6.93;;;3.13;;
63012;SDS011;62113;45.624;11.700;2024-03-02T08:12:38;4.97;;;2.80;;
63012;SDS011;62113;45.624;11.700;2024-03-02T08:15:04;6.73;;;2.57;;
63012;SDS011;62113;45.624;11.700;2024-03-02T08:17:30;4.65;;;2.58;;
63012;SDS011;62113;45.624;11.700;2024-03-02T08:19:56;5.65;;;2.50;;
63012;SDS011;62113;45.624;11.700;2024-03-02T08:22:23;7.32;;;2.40;;
63012;SDS011;62113;45.624;11.700;2024-03-02T08:24:52;6.28;;;2.88;;
63012;SDS011;62113;45.624;11.700;2024-03-02T08:27:17;4.93;;;2.87;;
63012;SDS011;62113;45.624;11.700;2024-03-02T08:29:43;4.47;;;2.40;;
63012;SDS011;62113;45.624;11.700;2024-03-02T08:32:08;6.50;;;2.23;;
63012;SDS011;62113;45.624;11.700;2024-03-02T08:34:34;5.77;;;3.10;;
63012;SDS011;62113;45.624;11.700;2024-03-02T08:37:00;4.07;;;2.27;;
63012;SDS011;62113;45.624;11.700;2024-03-02T08:39:29;8.18;;;2.50;;
63012;SDS011;62113;45.624;11.700;2024-03-02T08:41:55;5.40;;;2.97;;
63012;SDS011;62113;45.624;11.700;2024-03-02T08:44:20;7.68;;;3.05;;
63012;SDS011;62113;45.624;11.700;2024-03-02T08:46:46;6.87;;;2.60;;
63012;SDS011;62113;45.624;11.700;2024-03-02T08:49:12;6.43;;;2.90;;
63012;SDS011;62113;45.624;11.700;2024-03-02T08:51:38;7.30;;;2.80;;
63012;SDS011;62113;45.624;11.700;2024-03-02T08:54:03;5.57;;;2.27;;
63012;SDS011;62113;45.624;11.700;2024-03-02T08:56:30;9.60;;;3.13;;
63012;SDS011;62113;45.624;11.700;2024-03-02T08:58:56;3.42;;;2.30;;
63012;SDS011;62113;45.624;11.700;2024-03-02T09:01:21;7.13;;;2.97;;
63012;SDS011;62113;45.624;11.700;2024-03-02T09:03:47;7.00;;;2.90;;
63012;SDS011;62113;45.624;11.700;2024-03-02T09:06:14;3.63;;;2.60;;
63012;SDS011;62113;45.624;11.700;2024-03-02T09:08:42;3.70;;;2.15;;
63012;SDS011;62113;45.624;11.700;2024-03-02T09:11:08;4.13;;;2.78;;
63012;SDS011;62113;45.624;11.700;2024-03-02T09:13:35;8.77;;;3.10;;
63012;SDS011;62113;45.624;11.700;2024-03-02T09:16:01;9.77;;;3.08;;
63012;SDS011;62113;45.624;11.700;2024-03-02T09:18:27;16.23;;;3.55;;
63012;SDS011;62113;45.624;11.700;2024-03-02T09:20:53;5.20;;;3.10;;
63012;SDS011;62113;45.624;11.700;2024-03-02T09:23:19;4.90;;;3.13;;
63012;SDS011;62113;45.624;11.700;2024-03-02T09:25:44;7.93;;;3.20;;
63012;SDS011;62113;45.624;11.700;2024-03-02T09:28:10;7.03;;;2.67;;
63012;SDS011;62113;45.624;11.700;2024-03-02T09:30:36;11.77;;;3.50;;
63012;SDS011;62113;45.624;11.700;2024-03-02T09:33:01;5.37;;;2.60;;
63012;SDS011;62113;45.624;11.700;2024-03-02T09:35:27;4.27;;;2.37;;
63012;SDS011;62113;45.624;11.700;2024-03-02T09:37:52;6.75;;;2.45;;
63012;SDS011;62113;45.624;11.700;2024-03-02T09:40:20;3.77;;;2.73;;
63012;SDS011;62113;45.624;11.700;2024-03-02T09:42:47;3.95;;;2.20;;
63012;SDS011;62113;45.624;11.700;2024-03-02T09:45:17;2.92;;;1.83;;
63012;SDS011;62113;45.624;11.700;2024-03-02T09:47:49;8.50;;;2.25;;
63012;SDS011;62113;45.624;11.700;2024-03-02T09:50:14;5.20;;;2.37;;
63012;SDS011;62113;45.624;11.700;2024-03-02T09:52:42;5.47;;;2.57;;
63012;SDS011;62113;45.624;11.700;2024-03-02T09:55:08;6.10;;;2.92;;
63012;SDS011;62113;45.624;11.700;2024-03-02T09:57:34;8.75;;;4.47;;
63012;SDS011;62113;45.624;11.700;2024-03-02T10:00:00;7.05;;;3.28;;
63012;SDS011;62113;45.624;11.700;2024-03-02T10:02:25;12.27;;;3.43;;
63012;SDS011;62113;45.624;11.700;2024-03-02T10:04:51;5.40;;;3.43;;
63012;SDS011;62113;45.624;11.700;2024-03-02T10:07:17;8.90;;;4.05;;
63012;SDS011;62113;45.624;11.700;2024-03-02T10:09:44;7.93;;;3.75;;
63012;SDS011;62113;45.624;11.700;2024-03-02T10:12:14;6.10;;;3.22;;
63012;SDS011;62113;45.624;11.700;2024-03-02T10:14:41;6.50;;;2.50;;
63012;SDS011;62113;45.624;11.700;2024-03-02T10:17:08;5.45;;;2.30;;
63012;SDS011;62113;45.624;11.700;2024-03-02T10:19:35;5.50;;;2.88;;
63012;SDS011;62113;45.624;11.700;2024-03-02T10:22:02;5.68;;;2.83;;
63012;SDS011;62113;45.624;11.700;2024-03-02T10:24:36;3.35;;;2.20;;
63012;SDS011;62113;45.624;11.700;2024-03-02T10:27:09;8.07;;;2.75;;
63012;SDS011;62113;45.624;11.700;2024-03-02T10:29:39;5.47;;;2.95;;
63012;SDS011;62113;45.624;11.700;2024-03-02T10:32:05;6.13;;;3.23;;
63012;SDS011;62113;45.624;11.700;2024-03-02T10:34:34;3.65;;;2.60;;
63012;SDS011;62113;45.624;11.700;2024-03-02T10:39:26;9.30;;;3.50;;
63012;SDS011;62113;45.624;11.700;2024-03-02T10:41:52;5.57;;;3.00;;
63012;SDS011;62113;45.624;11.700;2024-03-02T10:44:20;6.68;;;2.75;;
63012;SDS011;62113;45.624;11.700;2024-03-02T10:46:47;7.18;;;3.17;;
63012;SDS011;62113;45.624;11.700;2024-03-02T10:49:18;4.50;;;2.95;;
63012;SDS011;62113;45.624;11.700;2024-03-02T10:51:45;6.60;;;4.63;;
63012;SDS011;62113;45.624;11.700;2024-03-02T10:54:11;9.23;;;5.23;;
63012;SDS011;62113;45.624;11.700;2024-03-02T10:56:40;6.83;;;3.90;;
63012;SDS011;62113;45.624;11.700;2024-03-02T10:59:24;7.22;;;3.13;;
63012;SDS011;62113;45.624;11.700;2024-03-02T11:02:02;6.93;;;3.65;;
63012;SDS011;62113;45.624;11.700;2024-03-02T11:04:29;8.45;;;4.13;;
63012;SDS011;62113;45.624;11.700;2024-03-02T11:09:28;11.77;;;3.78;;
63012;SDS011;62113;45.624;11.700;2024-03-02T11:12:13;5.53;;;3.10;;
63012;SDS011;62113;45.624;11.700;2024-03-02T11:14:44;7.75;;;3.80;;
63012;SDS011;62113;45.624;11.700;2024-03-02T11:17:10;10.20;;;4.68;;
63012;SDS011;62113;45.624;11.700;2024-03-02T11:19:38;9.82;;;4.82;;
63012;SDS011;62113;45.624;11.700;2024-03-02T11:22:05;9.63;;;5.68;;
63012;SDS011;62113;45.624;11.700;2024-03-02T11:24:32;8.40;;;4.03;;
63012;SDS011;62113;45.624;11.700;2024-03-02T11:26:58;8.02;;;4.93;;
63012;SDS011;62113;45.624;11.700;2024-03-02T11:32:01;7.75;;;4.57;;
63012;SDS011;62113;45.624;11.700;2024-03-02T11:34:31;5.45;;;3.88;;
63012;SDS011;62113;45.624;11.700;2024-03-02T11:36:57;5.30;;;3.55;;
63012;SDS011;62113;45.624;11.700;2024-03-02T11:39:27;10.65;;;4.35;;
63012;SDS011;62113;45.624;11.700;2024-03-02T11:41:53;6.00;;;4.05;;
63012;SDS011;62113;45.624;11.700;2024-03-02T11:44:20;8.40;;;4.53;;
63012;SDS011;62113;45.624;11.700;2024-03-02T11:46:47;6.23;;;3.80;;
63012;SDS011;62113;45.624;11.700;2024-03-02T11:49:36;4.75;;;3.65;;
63012;SDS011;62113;45.624;11.700;2024-03-02T11:52:08;11.07;;;3.95;;
63012;SDS011;62113;45.624;11.700;2024-03-02T11:54:39;8.25;;;4.07;;
63012;SDS011;62113;45.624;11.700;2024-03-02T11:57:11;3.80;;;2.90;;
63012;SDS011;62113;45.624;11.700;2024-03-02T11:59:39;5.32;;;3.10;;
63012;SDS011;62113;45.624;11.700;2024-03-02T12:02:05;4.83;;;2.83;;
63012;SDS011;62113;45.624;11.700;2024-03-02T12:04:31;8.03;;;3.70;;
63012;SDS011;62113;45.624;11.700;2024-03-02T12:06:58;5.53;;;2.80;;
63012;SDS011;62113;45.624;11.700;2024-03-02T12:09:25;4.18;;;2.90;;
63012;SDS011;62113;45.624;11.700;2024-03-02T12:14:51;5.72;;;2.70;;
63012;SDS011;62113;45.624;11.700;2024-03-02T12:17:18;6.50;;;2.72;;
63012;SDS011;62113;45.624;11.700;2024-03-02T12:19:44;7.60;;;3.43;;
63012;SDS011;62113;45.624;11.700;2024-03-02T12:24:36;6.33;;;3.40;;
63012;SDS011;62113;45.624;11.700;2024-03-02T12:27:02;5.60;;;3.40;;
63012;SDS011;62113;45.624;11.700;2024-03-02T12:29:29;7.68;;;4.20;;
63012;SDS011;62113;45.624;11.700;2024-03-02T12:31:55;7.37;;;4.17;;
63012;SDS011;62113;45.624;11.700;2024-03-02T12:34:21;6.20;;;4.20;;
63012;SDS011;62113;45.624;11.700;2024-03-02T12:36:48;4.65;;;3.90;;
63012;SDS011;62113;45.624;11.700;2024-03-02T12:39:15;6.55;;;3.28;;
63012;SDS011;62113;45.624;11.700;2024-03-02T12:41:42;5.95;;;3.35;;
63012;SDS011;62113;45.624;11.700;2024-03-02T12:44:08;4.93;;;3.37;;
63012;SDS011;62113;45.624;11.700;2024-03-02T12:46:34;6.87;;;3.93;;
63012;SDS011;62113;45.624;11.700;2024-03-02T12:49:09;6.53;;;4.03;;
63012;SDS011;62113;45.624;11.700;2024-03-02T12:51:36;7.97;;;3.65;;
63012;SDS011;62113;45.624;11.700;2024-03-02T12:54:05;9.48;;;3.03;;
63012;SDS011;62113;45.624;11.700;2024-03-02T12:56:35;7.55;;;3.45;;
63012;SDS011;62113;45.624;11.700;2024-03-02T12:59:04;6.78;;;3.90;;
63012;SDS011;62113;45.624;11.700;2024-03-02T13:01:30;7.55;;;3.10;;
63012;SDS011;62113;45.624;11.700;2024-03-02T13:03:57;4.72;;;2.70;;
63012;SDS011;62113;45.624;11.700;2024-03-02T13:06:24;5.47;;;2.47;;
63012;SDS011;62113;45.624;11.700;2024-03-02T13:08:52;5.22;;;2.85;;
63012;SDS011;62113;45.624;11.700;2024-03-02T13:11:18;10.73;;;3.37;;
63012;SDS011;62113;45.624;11.700;2024-03-02T13:13:45;3.13;;;2.35;;
63012;SDS011;62113;45.624;11.700;2024-03-02T13:16:12;3.20;;;2.30;;
63012;SDS011;62113;45.624;11.700;2024-03-02T13:18:38;3.80;;;3.00;;
63012;SDS011;62113;45.624;11.700;2024-03-02T13:21:05;8.57;;;3.00;;
63012;SDS011;62113;45.624;11.700;2024-03-02T13:23:31;3.27;;;2.97;;
63012;SDS011;62113;45.624;11.700;2024-03-02T13:25:59;6.93;;;3.60;;
63012;SDS011;62113;45.624;11.700;2024-03-02T13:28:26;6.30;;;4.20;;
63012;SDS011;62113;45.624;11.700;2024-03-02T13:30:51;6.27;;;4.17;;
63012;SDS011;62113;45.624;11.700;2024-03-02T13:33:17;7.23;;;4.30;;
63012;SDS011;62113;45.624;11.700;2024-03-02T13:35:49;4.47;;;2.67;;
63012;SDS011;62113;45.624;11.700;2024-03-02T13:38:16;4.57;;;2.70;;
63012;SDS011;62113;45.624;11.700;2024-03-02T13:40:45;2.70;;;2.50;;
63012;SDS011;62113;45.624;11.700;2024-03-02T13:43:17;3.30;;;2.38;;
63012;SDS011;62113;45.624;11.700;2024-03-02T13:45:46;3.60;;;2.20;;
63012;SDS011;62113;45.624;11.700;2024-03-02T13:48:12;2.80;;;2.47;;
63012;SDS011;62113;45.624;11.700;2024-03-02T13:50:39;2.35;;;2.15;;
63012;SDS011;62113;45.624;11.700;2024-03-02T13:53:05;5.10;;;2.45;;
63012;SDS011;62113;45.624;11.700;2024-03-02T13:55:32;5.88;;;3.60;;
63012;SDS011;62113;45.624;11.700;2024-03-02T13:57:58;2.45;;;2.25;;
63012;SDS011;62113;45.624;11.700;2024-03-02T14:00:24;3.33;;;2.27;;
63012;SDS011;62113;45.624;11.700;2024-03-02T14:02:49;3.30;;;2.30;;
63012;SDS011;62113;45.624;11.700;2024-03-02T14:05:15;2.78;;;2.20;;
63012;SDS011;62113;45.624;11.700;2024-03-02T14:07:42;5.23;;;2.90;;
63012;SDS011;62113;45.624;11.700;2024-03-02T14:10:08;4.53;;;2.30;;
63012;SDS011;62113;45.624;11.700;2024-03-02T14:12:34;9.67;;;2.43;;
63012;SDS011;62113;45.624;11.700;2024-03-02T14:15:01;2.40;;;2.20;;
63012;SDS011;62113;45.624;11.700;2024-03-02T14:17:29;2.70;;;2.50;;
63012;SDS011;62113;45.624;11.700;2024-03-02T14:19:57;3.13;;;2.60;;
63012;SDS011;62113;45.624;11.700;2024-03-02T14:22:24;3.72;;;2.80;;
63012;SDS011;62113;45.624;11.700;2024-03-02T14:24:49;3.80;;;3.10;;
63012;SDS011;62113;45.624;11.700;2024-03-02T14:27:15;3.33;;;2.80;;
63012;SDS011;62113;45.624;11.700;2024-03-02T14:29:42;2.70;;;2.50;;
63012;SDS011;62113;45.624;11.700;2024-03-02T14:32:08;2.38;;;2.17;;
63012;SDS011;62113;45.624;11.700;2024-03-02T14:34:33;2.97;;;2.67;;
63012;SDS011;62113;45.624;11.700;2024-03-02T14:36:59;2.60;;;2.40;;
63012;SDS011;62113;45.624;11.700;2024-03-02T14:39:28;3.43;;;2.63;;
63012;SDS011;62113;45.624;11.700;2024-03-02T14:41:54;5.28;;;4.25;;
63012;SDS011;62113;45.624;11.700;2024-03-02T14:44:20;6.85;;;3.40;;
63012;SDS011;62113;45.624;11.700;2024-03-02T14:46:48;3.70;;;3.10;;
63012;SDS011;62113;45.624;11.700;2024-03-02T14:49:14;5.57;;;3.70;;
63012;SDS011;62113;45.624;11.700;2024-03-02T14:51:40;5.13;;;3.20;;